Time;durP1;ratioP1;P1;durP2;ratioP2;P2;SDS_P1;SDS_P2;PMS_P1;PMS_P2;Temp;Humidity;BMP_temperature;BMP_pressure;BME280_temperature;BME280_humidity;BME280_pressure;Samples;Min_cycle;Max_cycle;Signal;HPM_P1;HPM_P2
2022/06/08 00:02:21;;;;;;;;;;;;;;;21.53;83.40;99442.50;5095722;28;19927;-87
2022/06/08 00:04:49;;;;;;;;;;;;;;;21.60;83.16;99448.88;5095299;28;19973;-86
2022/06/08 00:07:17;;;;;;;;;;;;;;;21.57;83.51;99449.25;5095885;28;19927;-87
2022/06/08 00:09:47;;;;;;;;;;;;;;;21.44;85.03;99443.59;5095239;28;19920;-87
2022/06/08 00:12:15;;;;;;;;;;;;;;;21.48;84.67;99442.19;5095532;28;19974;-87
2022/06/08 00:14:43;;;;;;;;;;;;;;;21.47;84.84;99443.22;5095594;28;19919;-89
2022/06/08 00:17:11;;;;;;;;;;;;;;;21.27;86.78;99442.88;5095570;28;19924;-87
2022/06/08 00:19:39;;;;;;;;;;;;;;;21.30;87.28;99445.22;5095195;28;19970;-87
2022/06/08 00:22:10;;;;;;;;;;;;;;;21.43;86.39;99447.34;5077726;28;19920;-87
2022/06/08 00:24:38;;;;;;;;;;;;;;;21.37;86.52;99448.06;5095028;28;20300;-87
2022/06/08 00:27:08;;;;;;;;;;;;;;;21.36;86.97;99441.78;5095084;28;19920;-82
2022/06/08 00:29:39;;;;;;;;;;;;;;;21.41;86.75;99446.66;5095220;28;19920;-81
2022/06/08 00:32:08;;;;;;;;;;;;;;;21.27;88.13;99447.44;5095163;28;20014;-82
2022/06/08 00:34:36;;;;;;;;;;;;;;;21.41;87.29;99443.94;5095056;28;19920;-82
2022/06/08 00:37:04;;;;;;;;;;;;;;;21.45;85.84;99450.72;5095264;28;20431;-81
2022/06/08 00:39:32;;;;;;;;;;;;;;;21.40;86.77;99447.69;5095163;28;20289;-82
2022/06/08 00:42:01;;;;;;;;;;;;;;;21.37;86.30;99443.47;5095205;28;19927;-82
2022/06/08 00:44:33;;;;;;;;;;;;;;;21.33;86.58;99435.88;5095173;28;19920;-84
2022/06/08 00:47:01;;;;;;;;;;;;;;;21.35;86.73;99440.09;5094821;28;20364;-83
2022/06/08 00:49:31;;;;;;;;;;;;;;;21.29;86.81;99439.97;5094376;28;19919;-86
2022/06/08 00:52:01;;;;;;;;;;;;;;;21.25;88.04;99446.75;5094873;28;19927;-82
2022/06/08 00:54:31;;;;;;;;;;;;;;;21.33;87.67;99454.88;5095064;28;19926;-82
2022/06/08 00:57:01;;;;;;;;;;;;;;;21.25;88.43;99514.56;5094322;28;19920;-81
2022/06/08 00:59:31;;;;;;;;;;;;;;;21.36;86.61;99553.00;5094859;28;19986;-82
2022/06/08 01:01:59;;;;;;;;;;;;;;;21.47;86.18;99534.63;5094768;28;19923;-87
2022/06/08 01:04:27;;;;;;;;;;;;;;;21.36;86.55;99479.75;5094490;28;20300;-84
2022/06/08 01:06:56;;;;;;;;;;;;;;;21.52;85.26;99486.94;5094402;28;19969;-83
2022/06/08 01:09:28;;;;;;;;;;;;;;;21.49;85.94;99495.44;5094282;28;19920;-83
2022/06/08 01:11:58;;;;;;;;;;;;;;;21.48;85.68;99499.16;5094101;28;19920;-88
2022/06/08 01:14:26;;;;;;;;;;;;;;;21.55;87.56;99494.72;5094663;28;20296;-88
2022/06/08 01:16:58;;;;;;;;;;;;;;;21.58;93.21;99502.47;5094266;28;20380;-85
2022/06/08 01:19:27;;;;;;;;;;;;;;;21.60;98.58;99502.31;5076594;28;20015;-80
2022/06/08 01:21:58;;;;;;;;;;;;;;;21.63;94.12;99505.50;5093986;28;19955;-77
2022/06/08 01:24:27;;;;;;;;;;;;;;;21.59;97.92;99500.63;5094320;28;19955;-78
2022/06/08 01:27:03;;;;;;;;;;;;;;;21.48;100.00;99498.31;5093975;28;19993;-78
2022/06/08 01:29:34;;;;;;;;;;;;;;;21.49;100.00;99506.28;5094548;28;19920;-78
2022/06/08 01:32:04;;;;;;;;;;;;;;;21.41;100.00;99495.47;5094444;28;19920;-78
2022/06/08 01:34:38;;;;;;;;;;;;;;;21.18;100.00;99475.63;5076815;28;19969;-80
2022/06/08 01:37:16;;;;;;;;;;;;;;;21.17;100.00;99468.50;5076931;28;19966;-80
2022/06/08 01:39:51;;;;;;;;;;;;;;;21.19;100.00;99463.75;5094490;28;20023;-79
2022/06/08 01:42:27;;;;;;;;;;;;;;;20.97;100.00;99473.53;5094653;28;20383;-79
2022/06/08 01:48:00;;;;;;;;;;;;;;;20.90;100.00;99467.13;5075559;28;19924;-78
2022/06/08 01:50:40;;;;;;;;;;;;;;;21.09;100.00;99462.09;5094192;28;19920;-78
2022/06/08 01:53:15;;;;;;;;;;;;;;;20.77;100.00;99462.28;5094147;28;20369;-77
2022/06/08 01:55:47;;;;;;;;;;;;;;;20.69;100.00;99454.19;5093876;28;19920;-77
2022/06/08 01:58:18;;;;;;;;;;;;;;;20.71;100.00;99457.56;5094149;28;19920;-77
2022/06/08 02:00:49;;;;;;;;;;;;;;;20.51;100.00;99467.97;5075736;28;19942;-77
2022/06/08 02:03:20;;;;;;;;;;;;;;;20.48;100.00;99471.88;5094035;28;19924;-77
2022/06/08 02:05:55;;;;;;;;;;;;;;;20.47;100.00;99497.28;5093875;28;19920;-77
2022/06/08 02:08:30;;;;;;;;;;;;;;;20.54;100.00;99500.97;5076362;28;19951;-81
2022/06/08 02:11:04;;;;;;;;;;;;;;;20.55;100.00;99499.94;5093892;28;19942;-80
2022/06/08 02:13:36;;;;;;;;;;;;;;;20.53;100.00;99496.56;5075817;28;19920;-81
2022/06/08 02:16:07;;;;;;;;;;;;;;;20.52;100.00;99494.88;5094025;28;19920;-81
2022/06/08 02:18:37;;;;;;;;;;;;;;;20.66;100.00;99481.66;5094251;28;19924;-81
2022/06/08 02:21:08;;;;;;;;;;;;;;;20.15;100.00;99497.31;5093946;28;19932;-81
2022/06/08 02:23:41;;;;;;;;;;;;;;;20.23;100.00;99497.31;5098026;28;19920;-81
2022/06/08 02:26:13;;;;;;;;;;;;;;;20.18;100.00;99515.94;5097633;28;19920;-79
2022/06/08 02:28:43;;;;;;;;;;;;;;;19.79;100.00;99522.06;5097418;28;19963;-79
2022/06/08 02:31:16;;;;;;;;;;;;;;;19.69;100.00;99511.41;5097738;28;19920;-86
2022/06/08 02:36:35;;;;;;;;;;;;;;;19.06;100.00;99455.16;5098578;28;19920;-89
2022/06/08 02:39:10;;;;;;;;;;;;;;;19.13;100.00;99455.38;5098347;28;20324;-90
2022/06/08 02:41:43;;;;;;;;;;;;;;;19.10;100.00;99450.28;5098581;28;20297;-89
2022/06/08 02:44:14;;;;;;;;;;;;;;;18.57;100.00;99475.75;5098510;28;19927;-87
2022/06/08 02:46:46;;;;;;;;;;;;;;;18.52;100.00;99491.56;5097667;28;19920;-87
2022/06/08 02:49:15;;;;;;;;;;;;;;;18.54;100.00;99495.84;5078743;28;20304;-85
2022/06/08 02:51:46;;;;;;;;;;;;;;;18.67;100.00;99500.81;5097455;28;19940;-82
2022/06/08 02:54:18;;;;;;;;;;;;;;;18.57;100.00;99491.97;5097314;28;20434;-90
2022/06/08 02:56:51;;;;;;;;;;;;;;;18.66;100.00;99488.31;5097614;28;20301;-90
2022/06/08 02:59:21;;;;;;;;;;;;;;;18.54;100.00;99503.09;5097311;28;19942;-90
2022/06/08 03:01:54;;;;;;;;;;;;;;;18.38;100.00;99497.59;5097270;28;19967;-89
2022/06/08 03:04:24;;;;;;;;;;;;;;;18.28;100.00;99498.56;5096970;28;19920;-91
2022/06/08 03:06:54;;;;;;;;;;;;;;;18.38;100.00;99489.50;5097596;28;19942;-90
2022/06/08 03:09:24;;;;;;;;;;;;;;;18.47;100.00;99481.28;5097327;28;19974;-89
2022/06/08 03:11:54;;;;;;;;;;;;;;;18.36;100.00;99488.81;5096906;28;19920;-92
2022/06/08 03:14:22;;;;;;;;;;;;;;;18.28;100.00;99484.22;5096823;28;19920;-90
2022/06/08 03:16:56;;;;;;;;;;;;;;;18.29;100.00;99494.00;5096427;28;19920;-91
2022/06/08 03:19:24;;;;;;;;;;;;;;;18.33;100.00;99483.72;5096729;28;19920;-90
2022/06/08 03:21:54;;;;;;;;;;;;;;;18.37;100.00;99485.09;5096673;28;20010;-90
2022/06/08 03:24:25;;;;;;;;;;;;;;;18.37;100.00;99494.06;5096814;28;19973;-78
2022/06/08 03:26:57;;;;;;;;;;;;;;;18.29;100.00;99500.25;5078269;28;20295;-78
2022/06/08 03:29:26;;;;;;;;;;;;;;;18.34;100.00;99512.44;5078889;28;19920;-78
2022/06/08 03:31:54;;;;;;;;;;;;;;;18.30;100.00;99512.72;5096109;28;19936;-77
2022/06/08 03:34:22;;;;;;;;;;;;;;;18.39;100.00;99521.72;5077927;28;20293;-78
2022/06/08 03:36:51;;;;;;;;;;;;;;;18.28;100.00;99522.84;5096272;28;20320;-79
2022/06/08 03:39:19;;;;;;;;;;;;;;;18.48;100.00;99528.03;5096398;28;19967;-77
2022/06/08 03:41:48;;;;;;;;;;;;;;;18.46;100.00;99533.59;5096169;28;19926;-84
2022/06/08 03:44:16;;;;;;;;;;;;;;;18.44;100.00;99534.78;5096485;28;19973;-77
2022/06/08 03:46:45;;;;;;;;;;;;;;;18.53;100.00;99531.09;5096040;28;19920;-77
2022/06/08 03:49:13;;;;;;;;;;;;;;;18.45;100.00;99541.84;5095723;28;19920;-77
2022/06/08 03:51:42;;;;;;;;;;;;;;;18.36;100.00;99538.25;5096426;28;19920;-77
2022/06/08 03:54:16;;;;;;;;;;;;;;;18.47;100.00;99534.44;5096294;28;19923;-77
2022/06/08 03:56:45;;;;;;;;;;;;;;;18.47;100.00;99532.59;5096115;28;19926;-75
2022/06/08 03:59:14;;;;;;;;;;;;;;;18.60;100.00;99526.72;5095946;28;19923;-82
2022/06/08 04:01:43;;;;;;;;;;;;;;;18.53;100.00;99523.00;5095712;28;19942;-82
2022/06/08 04:04:11;;;;;;;;;;;;;;;18.45;100.00;99514.84;5095787;28;20387;-82
2022/06/08 04:06:39;;;;;;;;;;;;;;;18.56;100.00;99512.72;5095495;28;19934;-82
2022/06/08 04:09:10;;;;;;;;;;;;;;;18.66;100.00;99507.22;5095657;28;19920;-82
2022/06/08 04:11:40;;;;;;;;;;;;;;;18.65;100.00;99505.53;5095923;28;19970;-81
2022/06/08 04:14:10;;;;;;;;;;;;;;;18.66;100.00;99504.53;5095532;28;19920;-79
2022/06/08 04:16:40;;;;;;;;;;;;;;;19.63;100.00;99500.41;5095707;28;20007;-79
2022/06/08 04:19:08;;;;;;;;;;;;;;;20.30;100.00;99509.16;5077533;28;19920;-79
2022/06/08 04:21:36;;;;;;;;;;;;;;;19.67;100.00;99505.28;5077356;28;19926;-81
2022/06/08 04:24:07;;;;;;;;;;;;;;;19.60;100.00;99508.88;5095016;28;19926;-80
2022/06/08 04:26:35;;;;;;;;;;;;;;;19.57;100.00;99507.31;5095271;28;19920;-81
2022/06/08 04:29:03;;;;;;;;;;;;;;;19.41;100.00;99508.13;5076968;28;19927;-86
2022/06/08 04:31:33;;;;;;;;;;;;;;;19.51;100.00;99517.94;5095346;28;20027;-89
2022/06/08 04:34:03;;;;;;;;;;;;;;;19.96;100.00;99515.59;5095129;28;19920;-88
2022/06/08 04:36:31;;;;;;;;;;;;;;;20.07;100.00;99521.69;5095771;28;19943;-89
2022/06/08 04:39:00;;;;;;;;;;;;;;;20.15;100.00;99518.97;5095531;28;19967;-87
2022/06/08 04:41:28;;;;;;;;;;;;;;;20.10;100.00;99526.78;5095665;28;19920;-86
2022/06/08 04:43:56;;;;;;;;;;;;;;;20.20;100.00;99522.03;5095263;28;19965;-86
2022/06/08 04:46:24;;;;;;;;;;;;;;;20.33;100.00;99519.63;5095478;28;19920;-85
2022/06/08 04:48:52;;;;;;;;;;;;;;;20.09;100.00;99514.25;5095444;28;19959;-85
2022/06/08 04:51:22;;;;;;;;;;;;;;;20.37;100.00;99509.31;5094308;28;19924;-76
2022/06/08 04:53:50;;;;;;;;;;;;;;;20.97;100.00;99511.50;5094746;28;19927;-77
2022/06/08 04:56:18;;;;;;;;;;;;;;;20.50;100.00;99510.47;5094295;28;20299;-78
2022/06/08 04:58:46;;;;;;;;;;;;;;;21.56;100.00;99512.69;5076435;28;19926;-76
2022/06/08 05:01:14;;;;;;;;;;;;;;;22.31;100.00;99511.91;5094367;28;19926;-73
2022/06/08 05:03:42;;;;;;;;;;;;;;;23.61;100.00;99514.84;5094549;28;20348;-74
2022/06/08 05:06:11;;;;;;;;;;;;;;;24.05;100.00;99521.97;5094359;28;19965;-75
2022/06/08 05:08:40;;;;;;;;;;;;;;;23.66;100.00;99523.28;5094548;28;19920;-74
2022/06/08 05:11:09;;;;;;;;;;;;;;;22.72;100.00;99515.00;5094162;28;19924;-77
2022/06/08 05:13:37;;;;;;;;;;;;;;;22.37;100.00;99510.28;5094497;28;20501;-74
2022/06/08 05:16:06;;;;;;;;;;;;;;;22.34;100.00;99516.09;5093921;28;19919;-76
2022/06/08 05:18:35;;;;;;;;;;;;;;;22.43;100.00;99520.44;5076411;28;19920;-76
2022/06/08 05:21:03;;;;;;;;;;;;;;;23.41;100.00;99520.06;5094039;28;19966;-76
2022/06/08 05:23:33;;;;;;;;;;;;;;;23.37;100.00;99525.06;5093385;28;20437;-76
2022/06/08 05:26:03;;;;;;;;;;;;;;;23.10;100.00;99529.31;5093503;28;20064;-77
2022/06/08 05:28:31;;;;;;;;;;;;;;;23.13;100.00;99522.66;5094191;28;19920;-77
2022/06/08 05:30:59;;;;;;;;;;;;;;;22.86;100.00;99518.75;5093530;28;19926;-77
2022/06/08 05:33:27;;;;;;;;;;;;;;;22.57;100.00;99516.84;5093631;28;19947;-77
2022/06/08 05:35:56;;;;;;;;;;;;;;;22.04;100.00;99516.03;5093682;28;19926;-78
2022/06/08 05:38:24;;;;;;;;;;;;;;;22.60;100.00;99511.06;5093955;28;20333;-77
2022/06/08 05:40:52;;;;;;;;;;;;;;;23.81;100.00;99513.16;5093990;28;19926;-77
2022/06/08 05:43:21;;;;;;;;;;;;;;;24.37;100.00;99515.94;5094005;28;19957;-77
2022/06/08 05:45:49;;;;;;;;;;;;;;;25.01;100.00;99510.25;5093944;28;20316;-77
2022/06/08 05:48:17;;;;;;;;;;;;;;;26.45;100.00;99505.28;5075525;28;19959;-78
2022/06/08 05:50:46;;;;;;;;;;;;;;;26.36;100.00;99506.50;5093741;28;20018;-75
2022/06/08 05:53:16;;;;;;;;;;;;;;;26.64;100.00;99506.28;5093813;28;19920;-76
2022/06/08 05:55:44;;;;;;;;;;;;;;;25.65;100.00;99526.19;5093252;28;20436;-75
2022/06/08 05:58:12;;;;;;;;;;;;;;;26.76;100.00;99534.66;5093475;28;19930;-79
2022/06/08 06:00:42;;;;;;;;;;;;;;;26.31;100.00;99549.19;5093801;28;19933;-75
2022/06/08 06:03:11;;;;;;;;;;;;;;;25.11;100.00;99557.13;5075423;28;19923;-80
2022/06/08 06:05:40;;;;;;;;;;;;;;;25.15;100.00;99548.50;5093901;28;19931;-79
2022/06/08 06:08:09;;;;;;;;;;;;;;;25.82;100.00;99547.69;5093564;28;19920;-76
2022/06/08 06:10:38;;;;;;;;;;;;;;;26.65;100.00;99551.72;5093655;28;20273;-76
2022/06/08 06:13:06;;;;;;;;;;;;;;;26.87;100.00;99557.75;5093401;28;19962;-76
2022/06/08 06:15:35;;;;;;;;;;;;;;;26.88;100.00;99561.34;5093539;28;20018;-73
2022/06/08 06:18:05;;;;;;;;;;;;;;;27.06;100.00;99550.59;5075118;28;19951;-74
2022/06/08 06:20:34;;;;;;;;;;;;;;;26.18;100.00;99552.78;5093135;28;20281;-74
2022/06/08 06:23:02;;;;;;;;;;;;;;;26.82;100.00;99544.72;5093354;28;19920;-75
2022/06/08 06:25:30;;;;;;;;;;;;;;;26.43;100.00;99545.63;5093471;28;19920;-75
2022/06/08 06:27:58;;;;;;;;;;;;;;;27.16;100.00;99540.00;5093289;28;19920;-80
2022/06/08 06:30:27;;;;;;;;;;;;;;;26.88;100.00;99531.25;5101504;28;20380;-75
2022/06/08 06:32:54;;;;;;;;;;;;;;;26.05;100.00;99534.47;5113810;28;19926;-75
2022/06/08 06:35:25;;;;;;;;;;;;;;;25.90;100.00;99537.41;5095261;28;19926;-78
2022/06/08 06:37:53;;;;;;;;;;;;;;;26.42;100.00;99537.66;5113977;28;19920;-74
2022/06/08 06:40:24;;;;;;;;;;;;;;;27.17;100.00;99529.91;5113409;28;19951;-76
2022/06/08 06:42:52;;;;;;;;;;;;;;;27.27;100.00;99525.63;5113202;28;20320;-73
2022/06/08 06:45:22;;;;;;;;;;;;;;;26.91;100.00;99528.06;5113451;28;19932;-74
2022/06/08 06:47:55;;;;;;;;;;;;;;;26.43;100.00;99526.50;5113390;28;19923;-77
2022/06/08 06:50:25;;;;;;;;;;;;;;;26.33;100.00;99527.94;5113527;28;20314;-73
2022/06/08 06:52:54;;;;;;;;;;;;;;;27.52;100.00;99530.38;5113299;28;19919;-75
2022/06/08 06:55:23;;;;;;;;;;;;;;;26.50;100.00;99531.97;5095063;28;19942;-75
2022/06/08 06:57:51;;;;;;;;;;;;;;;26.10;100.00;99522.91;5113469;28;19977;-76
2022/06/08 07:00:19;;;;;;;;;;;;;;;26.25;100.00;99518.94;5113428;28;19927;-75
2022/06/08 07:02:48;;;;;;;;;;;;;;;26.28;100.00;99519.56;5113542;28;20292;-75
2022/06/08 07:05:17;;;;;;;;;;;;;;;26.10;100.00;99512.81;5113129;28;20295;-74
2022/06/08 07:07:46;;;;;;;;;;;;;;;25.78;100.00;99513.66;5113321;28;20340;-75
2022/06/08 07:10:14;;;;;;;;;;;;;;;25.73;100.00;99502.50;5117043;28;19924;-77
2022/06/08 07:12:43;;;;;;;;;;;;;;;26.07;100.00;99496.88;5116972;28;19927;-75
2022/06/08 07:15:12;;;;;;;;;;;;;;;25.96;100.00;99500.19;5116986;28;19977;-77
2022/06/08 07:17:40;;;;;;;;;;;;;;;25.68;100.00;99498.50;5116997;28;20010;-75
2022/06/08 07:20:10;;;;;;;;;;;;;;;24.79;100.00;99498.56;5117059;28;19919;-75
2022/06/08 07:22:38;;;;;;;;;;;;;;;25.50;100.00;99487.31;5116846;28;19965;-75
2022/06/08 07:25:09;;;;;;;;;;;;;;;25.54;100.00;99488.59;5116861;28;19949;-75
2022/06/08 07:27:37;;;;;;;;;;;;;;;25.35;100.00;99483.91;5117387;28;20284;-75
2022/06/08 07:30:06;;;;;;;;;;;;;;;25.21;100.00;99484.94;5116689;28;19919;-75
2022/06/08 07:32:34;;;;;;;;;;;;;;;25.01;100.00;99482.97;5116783;28;19919;-75
2022/06/08 07:35:03;;;;;;;;;;;;;;;25.05;100.00;99492.44;5116669;28;19965;-92
2022/06/08 07:37:31;;;;;;;;;;;;;;;24.92;100.00;99491.53;5116731;28;20292;-76
2022/06/08 07:39:59;;;;;;;;;;;;;;;25.18;100.00;99490.78;5116530;28;19923;-76
2022/06/08 07:42:28;;;;;;;;;;;;;;;24.84;100.00;99500.72;5116592;28;20384;-75
2022/06/08 07:44:56;;;;;;;;;;;;;;;24.39;100.00;99494.78;5098296;28;19927;-76
2022/06/08 07:47:25;;;;;;;;;;;;;;;24.68;100.00;99487.41;5116172;28;19942;-76
2022/06/08 07:49:51;;;;;;;;;;;;;;;24.87;100.00;99488.56;5116132;28;19920;-76
2022/06/08 07:52:21;;;;;;;;;;;;;;;24.34;100.00;99482.81;5116517;28;19927;-76
2022/06/08 07:54:50;;;;;;;;;;;;;;;24.89;100.00;99478.28;5116430;28;19926;-76
2022/06/08 07:57:22;;;;;;;;;;;;;;;24.78;100.00;99483.25;5116175;28;19924;-76
2022/06/08 07:59:52;;;;;;;;;;;;;;;25.40;100.00;99492.34;5116582;28;19919;-76
2022/06/08 08:02:20;;;;;;;;;;;;;;;25.30;100.00;99484.56;5115961;28;19919;-76
2022/06/08 08:04:48;;;;;;;;;;;;;;;25.24;100.00;99495.44;5098121;28;19920;-76
2022/06/08 08:07:17;;;;;;;;;;;;;;;25.32;100.00;99476.16;5115767;28;19988;-76
2022/06/08 08:09:48;;;;;;;;;;;;;;;24.86;100.00;99475.97;5116253;28;19920;-76
2022/06/08 08:12:16;;;;;;;;;;;;;;;25.30;100.00;99472.81;5115938;28;19926;-76
2022/06/08 08:14:44;;;;;;;;;;;;;;;25.49;100.00;99472.00;5115911;28;20280;-76
2022/06/08 08:17:14;;;;;;;;;;;;;;;25.79;100.00;99468.91;5115745;28;19927;-76
2022/06/08 08:19:42;;;;;;;;;;;;;;;25.77;100.00;99473.72;5115844;28;19923;-76
2022/06/08 08:22:12;;;;;;;;;;;;;;;25.24;100.00;99476.34;5115797;28;20368;-76
2022/06/08 08:24:40;;;;;;;;;;;;;;;25.35;100.00;99471.13;5116177;28;20436;-76
2022/06/08 08:27:08;;;;;;;;;;;;;;;25.60;100.00;99468.66;5115853;28;20001;-76
2022/06/08 08:29:36;;;;;;;;;;;;;;;25.45;100.00;99475.34;5115646;28;19920;-76
2022/06/08 08:32:04;;;;;;;;;;;;;;;25.60;100.00;99467.81;5115640;28;19920;-76
2022/06/08 08:34:34;;;;;;;;;;;;;;;25.30;100.00;99464.63;5115694;28;19920;-76
2022/06/08 08:37:04;;;;;;;;;;;;;;;25.22;100.00;99471.09;5115768;28;19955;-76
2022/06/08 08:39:32;;;;;;;;;;;;;;;25.21;100.00;99471.31;5115639;28;19919;-76
2022/06/08 08:44:47;;;;;;;;;;;;;;;24.99;100.00;99470.53;5115493;28;19919;-77
2022/06/08 08:47:18;;;;;;;;;;;;;;;24.92;100.00;99473.28;5114824;28;19920;-77
2022/06/08 08:49:52;;;;;;;;;;;;;;;24.91;100.00;99468.88;5115054;28;19942;-76
2022/06/08 08:52:25;;;;;;;;;;;;;;;24.92;100.00;99473.28;5115221;28;19919;-77
2022/06/08 08:54:58;;;;;;;;;;;;;;;25.20;100.00;99470.47;5115515;28;19919;-76
2022/06/08 08:57:30;;;;;;;;;;;;;;;25.31;100.00;99469.03;5096561;28;19919;-77
2022/06/08 08:59:59;;;;;;;;;;;;;;;25.19;100.00;99468.78;5115230;28;19926;-77
2022/06/08 09:05:19;;;;;;;;;;;;;;;25.63;100.00;99446.38;5115229;28;19947;-78
2022/06/08 09:07:47;;;;;;;;;;;;;;;25.95;100.00;99442.00;5115074;28;19919;-77
2022/06/08 09:10:17;;;;;;;;;;;;;;;26.24;100.00;99448.06;5114884;28;20326;-77
2022/06/08 09:12:45;;;;;;;;;;;;;;;26.48;100.00;99457.50;5115128;28;19923;-77
2022/06/08 09:15:17;;;;;;;;;;;;;;;26.42;100.00;99452.88;5114814;28;20380;-78
2022/06/08 09:17:52;;;;;;;;;;;;;;;26.41;100.00;99453.94;5114615;28;20304;-78
2022/06/08 09:20:29;;;;;;;;;;;;;;;26.32;100.00;99449.72;5114836;28;19976;-78
2022/06/08 09:22:57;;;;;;;;;;;;;;;26.18;100.00;99448.91;5115001;28;19926;-77
2022/06/08 09:25:27;;;;;;;;;;;;;;;26.12;100.00;99455.22;5114227;28;19982;-78
2022/06/08 09:27:57;;;;;;;;;;;;;;;26.00;100.00;99451.47;5114631;28;19920;-77
2022/06/08 09:30:26;;;;;;;;;;;;;;;25.56;100.00;99445.53;5114181;28;19926;-77
2022/06/08 09:33:14;;;;;;;;;;;;;;;25.49;100.00;99450.16;5114227;28;20364;-77
2022/06/08 09:35:52;;;;;;;;;;;;;;;25.96;100.00;99456.47;5114702;28;19924;-78
2022/06/08 09:38:21;;;;;;;;;;;;;;;26.11;100.00;99459.00;5096314;28;19965;-78
2022/06/08 09:40:56;;;;;;;;;;;;;;;26.13;100.00;99452.28;5096417;28;19920;-78
2022/06/08 09:43:36;;;;;;;;;;;;;;;25.77;100.00;99446.41;5096133;28;19985;-77
2022/06/08 09:46:07;;;;;;;;;;;;;;;26.09;100.00;99437.38;5114654;28;20373;-77
2022/06/08 09:51:46;;;;;;;;;;;;;;;26.49;100.00;99429.09;5114437;28;20322;-78
2022/06/08 09:54:17;;;;;;;;;;;;;;;26.56;100.00;99410.78;5114133;28;19926;-78
2022/06/08 09:57:02;;;;;;;;;;;;;;;26.00;100.00;99414.03;5114098;28;20257;-77
2022/06/08 09:59:40;;;;;;;;;;;;;;;26.35;100.00;99419.25;5114011;28;20015;-77
2022/06/08 10:02:15;;;;;;;;;;;;;;;26.65;100.00;99409.50;5114095;28;19969;-77
2022/06/08 10:04:54;;;;;;;;;;;;;;;26.89;100.00;99407.06;5114272;28;20361;-77
2022/06/08 10:07:29;;;;;;;;;;;;;;;26.91;100.00;99394.00;5114030;28;19930;-76
2022/06/08 10:10:17;;;;;;;;;;;;;;;26.86;91.20;99391.94;5095958;28;19920;-78
2022/06/08 10:12:48;;;;;;;;;;;;;;;27.56;81.92;99395.50;5114244;28;19920;-77
2022/06/08 10:15:19;;;;;;;;;;;;;;;27.59;60.50;99380.50;5113655;28;20018;-77
2022/06/08 10:17:53;;;;;;;;;;;;;;;28.21;58.45;99378.69;5114301;28;20014;-77
2022/06/08 10:20:26;;;;;;;;;;;;;;;28.28;51.14;99390.47;5113876;28;19920;-77
2022/06/08 10:22:57;;;;;;;;;;;;;;;28.44;47.52;99389.81;5114269;28;20369;-77
2022/06/08 10:25:31;;;;;;;;;;;;;;;28.49;46.10;99384.50;5113636;28;19926;-77
2022/06/08 10:28:02;;;;;;;;;;;;;;;28.23;46.49;99377.38;5113901;28;20384;-76
2022/06/08 10:30:32;;;;;;;;;;;;;;;28.37;44.32;99375.34;5095670;28;20019;-77
2022/06/08 10:33:03;;;;;;;;;;;;;;;28.14;44.65;99370.53;5095797;28;19919;-77
2022/06/08 10:35:32;;;;;;;;;;;;;;;28.06;44.43;99369.97;5113858;28;19920;-77
2022/06/08 10:38:02;;;;;;;;;;;;;;;27.79;45.26;99370.22;5113913;28;19926;-77
2022/06/08 10:40:45;;;;;;;;;;;;;;;27.51;44.36;99364.38;5114097;28;20014;-77
2022/06/08 10:43:18;;;;;;;;;;;;;;;27.47;45.71;99360.38;5116159;28;19930;-77
2022/06/08 10:45:52;;;;;;;;;;;;;;;28.09;43.98;99362.16;5099891;28;19919;-78
2022/06/08 10:48:25;;;;;;;;;;;;;;;28.24;43.46;99350.78;5098997;28;19930;-77
2022/06/08 10:51:12;;;;;;;;;;;;;;;27.92;42.94;99353.69;5117670;28;19920;-77
2022/06/08 10:56:50;;;;;;;;;;;;;;;28.24;42.85;99340.66;5117793;28;19919;-77
2022/06/08 10:59:19;;;;;;;;;;;;;;;28.68;41.44;99341.44;5117319;28;19920;-77
2022/06/08 11:01:58;;;;;;;;;;;;;;;28.78;41.06;99346.34;5117280;28;19981;-76
2022/06/08 11:04:50;;;;;;;;;;;;;;;28.95;39.51;99341.06;5098992;28;19955;-77
2022/06/08 11:07:22;;;;;;;;;;;;;;;28.61;40.66;99335.19;5117135;28;19919;-78
2022/06/08 11:09:58;;;;;;;;;;;;;;;28.92;41.02;99331.41;5117314;28;20010;-77
2022/06/08 11:12:39;;;;;;;;;;;;;;;28.97;41.20;99330.72;5117186;28;19966;-77
2022/06/08 11:15:12;;;;;;;;;;;;;;;28.76;41.15;99332.03;5117038;28;20319;-77
2022/06/08 11:17:49;;;;;;;;;;;;;;;28.44;40.50;99332.22;5098944;28;19924;-77
2022/06/08 11:20:21;;;;;;;;;;;;;;;28.01;40.86;99329.56;5116923;28;19920;-89
2022/06/08 11:22:51;;;;;;;;;;;;;;;28.17;42.12;99326.19;5117282;28;19920;-76
2022/06/08 11:25:23;;;;;;;;;;;;;;;28.29;41.68;99315.34;5116963;28;20006;-77
2022/06/08 11:28:06;;;;;;;;;;;;;;;28.18;40.70;99319.66;5117240;28;19919;-76
2022/06/08 11:30:48;;;;;;;;;;;;;;;27.93;41.01;99310.66;5116129;28;19968;-76
2022/06/08 11:33:18;;;;;;;;;;;;;;;27.82;42.11;99309.53;5116839;28;19919;-76
2022/06/08 11:36:16;;;;;;;;;;;;;;;27.82;41.74;99312.25;5116530;28;19927;-76
2022/06/08 11:39:05;;;;;;;;;;;;;;;28.24;41.17;99306.94;5033839;28;20000;-77
2022/06/08 11:41:37;;;;;;;;;;;;;;;28.52;40.90;99309.97;5106969;28;19919;-76
2022/06/08 11:44:13;;;;;;;;;;;;;;;28.61;40.12;99301.44;5116911;28;19923;-76
2022/06/08 11:46:43;;;;;;;;;;;;;;;28.65;40.11;99292.47;5116728;28;19920;-76
2022/06/08 11:49:28;;;;;;;;;;;;;;;28.87;40.77;99303.78;5116409;28;19924;-76
2022/06/08 11:51:56;;;;;;;;;;;;;;;28.80;39.40;99279.19;5116229;28;19919;-76
2022/06/08 11:54:25;;;;;;;;;;;;;;;28.78;39.60;99294.22;5115160;28;19927;-76
2022/06/08 11:57:04;;;;;;;;;;;;;;;28.88;40.85;99299.97;5116687;28;19958;-76
2022/06/08 11:59:36;;;;;;;;;;;;;;;29.04;40.03;99285.59;5116369;28;19934;-76
2022/06/08 12:02:16;;;;;;;;;;;;;;;29.18;39.83;99304.63;5116480;28;19923;-76
2022/06/08 12:04:47;;;;;;;;;;;;;;;29.05;39.46;99286.47;5116289;28;19920;-76
2022/06/08 12:07:29;;;;;;;;;;;;;;;29.12;39.90;99292.66;5097875;28;20417;-77
2022/06/08 12:09:57;;;;;;;;;;;;;;;29.36;39.18;99290.78;5097676;28;19961;-75
2022/06/08 12:12:29;;;;;;;;;;;;;;;29.35;39.21;99281.72;5115957;28;19920;-78
2022/06/08 12:14:57;;;;;;;;;;;;;;;29.26;39.81;99283.16;5097873;28;19927;-77
2022/06/08 12:17:33;;;;;;;;;;;;;;;29.21;39.19;99285.75;5097408;28;20018;-77
2022/06/08 12:20:03;;;;;;;;;;;;;;;29.45;39.58;99278.38;5116061;28;19920;-77
2022/06/08 12:22:32;;;;;;;;;;;;;;;29.52;39.13;99273.63;5115943;28;19984;-78
2022/06/08 12:25:07;;;;;;;;;;;;;;;29.50;39.32;99267.53;5098829;28;20093;-77
2022/06/08 12:27:41;;;;;;;;;;;;;;;29.48;38.85;99257.84;5116979;28;19923;-77
2022/06/08 12:30:20;;;;;;;;;;;;;;;29.46;39.18;99260.81;5115955;28;19958;-77
2022/06/08 12:32:53;;;;;;;;;;;;;;;29.63;40.37;99255.47;5115656;28;19920;-77
2022/06/08 12:35:23;;;;;;;;;;;;;;;29.77;39.31;99253.31;5115717;28;19920;-77
2022/06/08 12:38:04;;;;;;;;;;;;;;;29.78;39.42;99250.31;5097700;28;19923;-77
2022/06/08 12:40:34;;;;;;;;;;;;;;;29.96;39.22;99249.31;5097009;28;19926;-78
2022/06/08 12:43:14;;;;;;;;;;;;;;;30.27;39.21;99236.22;5097091;28;19926;-77
2022/06/08 12:45:43;;;;;;;;;;;;;;;30.45;39.35;99242.38;5115438;28;19920;-77
2022/06/08 12:48:22;;;;;;;;;;;;;;;30.53;40.77;99235.66;5097095;28;19974;-76
2022/06/08 12:50:51;;;;;;;;;;;;;;;30.41;40.47;99227.44;5115606;28;19927;-77
2022/06/08 12:53:19;;;;;;;;;;;;;;;30.33;40.49;99229.75;5096993;28;19919;-77
2022/06/08 12:55:48;;;;;;;;;;;;;;;30.25;40.73;99235.66;5096637;28;20052;-77
2022/06/08 12:58:18;;;;;;;;;;;;;;;29.97;42.42;99233.66;5096985;28;20360;-77
2022/06/08 13:00:48;;;;;;;;;;;;;;;29.55;44.42;99231.94;5114875;28;20022;-77
2022/06/08 13:03:18;;;;;;;;;;;;;;;29.32;45.38;99231.91;5115263;28;19947;-77
2022/06/08 13:05:46;;;;;;;;;;;;;;;29.10;46.45;99225.34;5095624;28;19965;-77
2022/06/08 13:08:16;;;;;;;;;;;;;;;28.84;49.63;99224.66;5096694;28;19935;-77
2022/06/08 13:10:45;;;;;;;;;;;;;;;28.55;51.83;99220.06;5096816;28;20331;-78
2022/06/08 13:13:16;;;;;;;;;;;;;;;28.35;53.99;99221.16;5114986;28;19920;-77
2022/06/08 13:15:46;;;;;;;;;;;;;;;27.57;58.72;99210.91;5096407;28;20026;-77
2022/06/08 13:18:16;;;;;;;;;;;;;;;27.79;59.89;99216.81;5096501;28;20369;-77